createdAt,value
2019-03-21T00:00:30.737Z,99.90
2019-03-21T00:02:59.810Z,99.90
2019-03-21T00:05:32.857Z,99.90
2019-03-21T00:08:01.900Z,99.90
2019-03-21T00:11:45.592Z,99.90
2019-03-21T00:15:06.400Z,99.90
2019-03-21T00:17:39.882Z,99.90
2019-03-21T00:20:15.029Z,99.90
2019-03-21T00:22:44.419Z,99.90
2019-03-21T00:25:18.161Z,99.90
2019-03-21T00:27:49.174Z,99.90
2019-03-21T00:30:20.487Z,99.90
2019-03-21T00:32:51.012Z,99.90
2019-03-21T00:35:20.322Z,99.90
2019-03-21T00:37:50.199Z,99.90
2019-03-21T00:40:27.434Z,99.90
2019-03-21T00:42:58.893Z,99.90
2019-03-21T00:45:29.658Z,99.90
2019-03-21T00:48:00.092Z,99.90
2019-03-21T00:50:29.542Z,99.90
2019-03-21T00:52:58.299Z,99.90
2019-03-21T00:55:28.766Z,99.90
2019-03-21T00:57:59.692Z,99.90
2019-03-21T01:00:36.033Z,99.90
2019-03-21T01:03:06.361Z,99.90
2019-03-21T01:05:35.576Z,99.90
2019-03-21T01:08:04.978Z,99.90
2019-03-21T01:10:34.178Z,99.90
2019-03-21T01:13:03.275Z,99.90
2019-03-21T01:15:32.857Z,99.90
2019-03-21T01:18:02.201Z,99.90
2019-03-21T01:20:31.363Z,99.90
2019-03-21T01:23:00.458Z,99.90
2019-03-21T01:25:34.769Z,99.90
2019-03-21T01:28:03.618Z,99.90
2019-03-21T01:30:33.102Z,99.90
2019-03-21T01:33:02.129Z,99.90
2019-03-21T01:35:31.584Z,99.90
2019-03-21T01:38:00.660Z,99.90
2019-03-21T01:40:31.275Z,99.90
2019-03-21T01:43:01.092Z,99.90
2019-03-21T01:47:59.927Z,99.90
2019-03-21T01:50:30.128Z,99.90
2019-03-21T01:52:59.080Z,99.90
2019-03-21T01:55:29.082Z,99.90
2019-03-21T01:57:57.927Z,99.90
2019-03-21T02:00:31.642Z,99.90
2019-03-21T02:03:01.110Z,99.90
2019-03-21T02:05:31.381Z,99.90
2019-03-21T02:08:00.717Z,99.90
2019-03-21T02:10:31.328Z,99.90
2019-03-21T02:13:01.002Z,99.90
2019-03-21T02:18:02.558Z,99.90
2019-03-21T02:20:33.367Z,99.90
2019-03-21T02:23:02.492Z,99.90
2019-03-21T02:25:32.169Z,99.90
2019-03-21T02:28:02.675Z,99.90
2019-03-21T02:30:34.536Z,99.90
2019-03-21T02:33:14.504Z,99.90
2019-03-21T02:35:43.706Z,99.90
2019-03-21T02:38:12.607Z,99.90
2019-03-21T02:40:41.780Z,99.90
2019-03-21T02:43:13.334Z,99.90
2019-03-21T02:45:42.296Z,99.90
2019-03-21T02:48:11.340Z,99.90
2019-03-21T02:50:40.727Z,99.90
2019-03-21T02:53:12.806Z,99.90
2019-03-21T02:55:41.669Z,99.90
2019-03-21T02:58:11.349Z,99.90
2019-03-21T03:00:41.013Z,99.90
2019-03-21T03:03:13.150Z,99.90
2019-03-21T03:05:42.139Z,99.90
2019-03-21T03:08:11.646Z,99.90
2019-03-21T03:10:44.501Z,99.90
2019-03-21T03:13:14.756Z,99.90
2019-03-21T03:15:43.578Z,99.90
2019-03-21T03:18:13.663Z,99.90
2019-03-21T03:20:43.279Z,99.90
2019-03-21T03:23:13.340Z,99.90
2019-03-21T03:28:16.164Z,99.90
2019-03-21T03:33:17.209Z,99.90
2019-03-21T03:35:46.543Z,99.90
2019-03-21T03:38:15.349Z,99.90
2019-03-21T03:40:47.688Z,99.90
2019-03-21T03:43:16.525Z,99.90
2019-03-21T03:50:43.227Z,99.90
2019-03-21T03:53:14.933Z,99.90
2019-03-21T03:55:43.807Z,99.90
2019-03-21T03:58:14.648Z,99.90
2019-03-21T04:03:12.282Z,99.90
2019-03-21T04:05:41.215Z,99.90
2019-03-21T04:08:13.271Z,99.90
2019-03-21T04:13:12.464Z,99.90
2019-03-21T04:15:52.335Z,99.90
2019-03-21T04:25:52.856Z,99.90
2019-03-21T04:28:21.956Z,99.90
2019-03-21T04:30:50.964Z,99.90
2019-03-21T04:33:22.529Z,99.90
2019-03-21T04:38:21.320Z,99.90
2019-03-21T04:40:50.439Z,99.90
2019-03-21T04:53:14.690Z,99.90
2019-03-21T04:55:44.979Z,99.90
2019-03-21T04:58:13.755Z,99.90
2019-03-21T05:00:42.662Z,99.90
2019-03-21T05:03:11.955Z,99.90
2019-03-21T05:05:40.816Z,99.90
2019-03-21T05:08:09.857Z,99.90
2019-03-21T05:10:38.792Z,99.90
2019-03-21T05:13:07.540Z,99.90
2019-03-21T05:20:41.265Z,99.90
2019-03-21T05:25:40.637Z,99.90
2019-03-21T05:30:49.320Z,99.90
2019-03-21T05:33:22.122Z,99.90
2019-03-21T05:35:51.517Z,99.90
2019-03-21T05:38:29.453Z,99.90
2019-03-21T05:40:58.861Z,99.90
2019-03-21T05:43:36.689Z,99.90
2019-03-21T05:48:34.612Z,99.90
2019-03-21T05:51:03.833Z,99.90
2019-03-21T05:53:32.895Z,99.90
2019-03-21T05:56:01.709Z,99.90
2019-03-21T05:58:30.836Z,99.90
2019-03-21T06:01:00.144Z,99.90
2019-03-21T06:03:33.587Z,99.90
2019-03-21T06:06:11.102Z,99.90
2019-03-21T06:08:40.704Z,99.90
2019-03-21T06:11:09.564Z,99.90
2019-03-21T06:13:39.893Z,99.90
2019-03-21T06:16:10.827Z,99.90
2019-03-21T06:19:28.674Z,99.90
2019-03-21T06:22:41.174Z,99.90
2019-03-21T06:26:03.933Z,99.90
2019-03-21T06:28:33.714Z,99.90
2019-03-21T06:31:04.557Z,99.90
2019-03-21T06:33:34.821Z,99.90
2019-03-21T06:36:04.763Z,99.90
2019-03-21T06:38:34.865Z,99.90
2019-03-21T06:41:04.310Z,99.90
2019-03-21T06:43:33.748Z,99.90
2019-03-21T06:46:06.262Z,99.90
2019-03-21T06:48:35.163Z,99.90
2019-03-21T06:51:04.090Z,99.90
2019-03-21T06:53:33.158Z,99.90
2019-03-21T06:56:02.064Z,99.90
2019-03-21T06:58:31.436Z,99.90
2019-03-21T07:01:00.254Z,99.90
2019-03-21T07:03:29.695Z,99.90
2019-03-21T07:06:00.541Z,99.90
2019-03-21T07:08:29.947Z,99.90
2019-03-21T07:10:59.464Z,99.90
2019-03-21T07:13:30.012Z,99.90
2019-03-21T07:15:59.114Z,99.90
2019-03-21T07:18:28.724Z,99.90
2019-03-21T07:20:57.877Z,99.90
2019-03-21T07:23:26.948Z,99.90
2019-03-21T07:25:56.254Z,99.90
2019-03-21T07:28:25.743Z,96.80
2019-03-21T07:30:54.919Z,89.20
2019-03-21T07:33:24.140Z,83.10
2019-03-21T07:35:53.025Z,78.90
2019-03-21T07:38:21.818Z,74.20
2019-03-21T07:40:50.701Z,70.10
2019-03-21T07:43:22.110Z,64.20
2019-03-21T07:45:50.641Z,59.70
2019-03-21T07:48:19.628Z,57.80
2019-03-21T07:50:48.605Z,55.10
2019-03-21T07:53:18.563Z,55.60
2019-03-21T07:55:48.907Z,54.10
2019-03-21T07:58:18.457Z,55.70
2019-03-21T08:00:47.497Z,57.60
2019-03-21T08:03:16.347Z,59.40
2019-03-21T08:05:45.211Z,57.50
2019-03-21T08:08:15.114Z,54.70
2019-03-21T08:10:44.416Z,54.20
2019-03-21T08:13:13.158Z,55.40
2019-03-21T08:15:42.380Z,53.70
2019-03-21T08:18:11.140Z,54.40
2019-03-21T08:20:39.936Z,52.90
2019-03-21T08:23:09.050Z,51.00
2019-03-21T08:25:37.922Z,51.00
2019-03-21T08:28:07.264Z,49.90
2019-03-21T08:30:38.817Z,51.90
2019-03-21T08:33:07.695Z,53.80
2019-03-21T08:35:36.602Z,54.20
2019-03-21T08:38:05.614Z,53.80
2019-03-21T08:40:35.506Z,50.00
2019-03-21T08:43:04.765Z,48.60
2019-03-21T08:45:34.287Z,49.10
2019-03-21T08:48:03.567Z,46.40
2019-03-21T08:50:32.706Z,46.30
2019-03-21T08:53:01.689Z,47.20
2019-03-21T08:55:30.703Z,50.60
2019-03-21T08:58:00.372Z,48.30
2019-03-21T09:00:34.371Z,47.40
2019-03-21T09:03:01.501Z,46.80
2019-03-21T09:05:30.760Z,46.10
2019-03-21T09:07:59.599Z,46.40
2019-03-21T09:10:28.483Z,43.40
2019-03-21T09:12:57.357Z,43.60
2019-03-21T09:15:27.429Z,44.70
2019-03-21T09:17:57.684Z,44.00
2019-03-21T09:20:27.288Z,43.90
2019-03-21T09:22:56.126Z,43.10
2019-03-21T09:25:25.036Z,43.20
2019-03-21T09:28:02.650Z,42.70
2019-03-21T09:30:25.443Z,42.70
2019-03-21T09:32:54.252Z,44.10
2019-03-21T09:35:23.223Z,43.50
2019-03-21T09:37:52.415Z,40.80
2019-03-21T09:40:22.086Z,42.30
2019-03-21T09:42:52.478Z,41.40
2019-03-21T09:45:23.306Z,39.80
2019-03-21T09:47:52.491Z,41.20
2019-03-21T09:50:28.459Z,42.10
2019-03-21T09:52:57.607Z,42.50
2019-03-21T09:55:26.565Z,42.90
2019-03-21T09:58:02.900Z,42.10
2019-03-21T10:00:36.198Z,44.90
2019-03-21T10:03:05.774Z,44.60
2019-03-21T10:05:36.468Z,44.60
2019-03-21T10:08:05.819Z,44.30
2019-03-21T10:10:35.812Z,41.00
2019-03-21T10:13:05.505Z,41.70
2019-03-21T10:15:35.293Z,40.40
2019-03-21T10:18:05.707Z,39.30
2019-03-21T10:20:34.805Z,39.70
2019-03-21T10:23:04.277Z,42.40
2019-03-21T10:25:33.146Z,41.40
2019-03-21T10:28:03.058Z,38.10
2019-03-21T10:30:38.118Z,38.60
2019-03-21T10:33:09.038Z,39.30
2019-03-21T10:35:38.147Z,40.20
2019-03-21T10:38:07.677Z,40.30
2019-03-21T10:40:37.155Z,40.90
2019-03-21T10:43:06.299Z,39.90
2019-03-21T10:45:35.272Z,39.40
2019-03-21T10:48:04.565Z,39.60
2019-03-21T10:50:35.332Z,40.30
2019-03-21T10:53:05.070Z,41.40
2019-03-21T10:55:33.996Z,42.50
2019-03-21T10:58:03.543Z,41.10
2019-03-21T11:00:32.436Z,38.90
2019-03-21T11:03:01.335Z,39.20
2019-03-21T11:05:30.595Z,39.50
2019-03-21T11:08:00.275Z,39.80
2019-03-21T11:10:29.772Z,39.60
2019-03-21T11:12:59.126Z,40.20
2019-03-21T11:15:28.410Z,39.10
2019-03-21T11:17:57.521Z,38.90
2019-03-21T11:20:32.405Z,40.40
2019-03-21T11:23:01.956Z,41.70
2019-03-21T11:25:31.262Z,42.80
2019-03-21T11:28:00.145Z,45.20
2019-03-21T11:30:31.903Z,46.60
2019-03-21T11:33:01.883Z,47.90
2019-03-21T11:35:31.871Z,48.90
2019-03-21T11:38:01.132Z,50.00
2019-03-21T11:40:32.305Z,49.70
2019-03-21T11:43:02.857Z,49.10
2019-03-21T11:45:32.360Z,49.20
2019-03-21T11:48:01.270Z,50.50
2019-03-21T11:50:30.408Z,49.40
2019-03-21T11:52:59.198Z,49.40
2019-03-21T11:55:29.840Z,48.60
2019-03-21T11:57:58.792Z,49.50
2019-03-21T12:00:28.132Z,49.00
2019-03-21T12:02:57.933Z,49.10
2019-03-21T12:05:29.217Z,52.00
2019-03-21T12:07:58.512Z,50.10
2019-03-21T12:10:27.762Z,49.50
2019-03-21T12:12:56.721Z,49.80
2019-03-21T12:15:25.659Z,49.50
2019-03-21T12:17:54.463Z,49.30
2019-03-21T12:20:34.363Z,49.80
2019-03-21T12:23:03.906Z,48.90
2019-03-21T12:25:33.191Z,49.60
2019-03-21T12:28:02.062Z,49.00
2019-03-21T12:30:39.376Z,49.10
2019-03-21T12:33:09.301Z,48.80
2019-03-21T12:35:39.022Z,48.70
2019-03-21T12:38:09.202Z,48.60
2019-03-21T12:40:38.834Z,48.90
2019-03-21T12:43:08.822Z,49.10
2019-03-21T12:45:37.640Z,49.30
2019-03-21T12:48:07.616Z,49.70
2019-03-21T12:50:36.448Z,49.40
2019-03-21T12:53:05.937Z,48.80
2019-03-21T12:55:35.180Z,48.80
2019-03-21T12:58:05.027Z,48.30
2019-03-21T13:00:39.772Z,49.50
2019-03-21T13:03:08.618Z,48.30
2019-03-21T13:05:38.501Z,46.20
2019-03-21T13:08:07.697Z,47.30
2019-03-21T13:10:36.980Z,48.40
2019-03-21T13:13:06.395Z,48.90
2019-03-21T13:15:35.613Z,48.90
2019-03-21T13:18:06.724Z,47.40
2019-03-21T13:20:37.678Z,48.80
2019-03-21T13:23:07.786Z,47.70
2019-03-21T13:25:37.476Z,47.90
2019-03-21T13:28:06.751Z,48.20
2019-03-21T13:30:37.060Z,48.20
2019-03-21T13:33:06.808Z,47.30
2019-03-21T13:35:35.855Z,48.10
2019-03-21T13:38:05.291Z,47.40
2019-03-21T13:40:38.288Z,47.60
2019-03-21T13:43:11.395Z,47.00
2019-03-21T13:45:41.941Z,47.10
2019-03-21T13:48:11.400Z,47.90
2019-03-21T13:50:40.420Z,47.20
2019-03-21T13:53:18.488Z,46.30
2019-03-21T13:55:42.011Z,47.30
2019-03-21T13:58:11.308Z,47.10
2019-03-21T14:00:41.225Z,47.10
2019-03-21T14:03:10.871Z,47.00
2019-03-21T14:05:40.759Z,47.90
2019-03-21T14:08:11.581Z,47.50
2019-03-21T14:10:40.406Z,47.10
2019-03-21T14:13:09.381Z,47.20
2019-03-21T14:15:38.913Z,47.20
2019-03-21T14:18:08.821Z,46.40
2019-03-21T14:20:39.130Z,47.60
2019-03-21T14:23:16.895Z,47.60
2019-03-21T14:25:39.474Z,48.80
2019-03-21T14:28:08.709Z,48.00
2019-03-21T14:30:38.080Z,48.00
2019-03-21T14:33:08.267Z,48.40
2019-03-21T14:35:38.215Z,48.70
2019-03-21T14:38:07.959Z,49.00
2019-03-21T14:40:40.019Z,49.80
2019-03-21T14:43:09.316Z,49.50
2019-03-21T14:45:41.242Z,46.80
2019-03-21T14:48:10.553Z,45.90
2019-03-21T14:50:40.127Z,46.00
2019-03-21T14:53:09.813Z,47.90
2019-03-21T14:55:47.474Z,48.90
2019-03-21T14:58:09.981Z,48.90
2019-03-21T15:00:39.007Z,49.50
2019-03-21T15:03:08.342Z,50.00
2019-03-21T15:05:37.784Z,50.30
2019-03-21T15:08:06.713Z,49.90
2019-03-21T15:10:36.104Z,50.60
2019-03-21T15:13:05.190Z,51.40
2019-03-21T15:15:35.839Z,51.50
2019-03-21T15:18:04.762Z,51.50
2019-03-21T15:20:33.930Z,52.20
2019-03-21T15:23:03.078Z,52.60
2019-03-21T15:25:32.551Z,52.10
2019-03-21T15:28:02.419Z,53.40
2019-03-21T15:30:31.394Z,52.90
2019-03-21T15:33:00.387Z,53.60
2019-03-21T15:35:29.304Z,53.90
2019-03-21T15:37:59.494Z,54.30
2019-03-21T15:40:29.091Z,54.50
2019-03-21T15:42:58.095Z,53.60
2019-03-21T15:45:27.940Z,54.20
2019-03-21T15:47:57.196Z,55.00
2019-03-21T15:50:36.890Z,55.00
2019-03-21T15:53:05.525Z,54.60
2019-03-21T15:55:34.744Z,55.20
2019-03-21T15:58:05.163Z,54.70
2019-03-21T16:00:37.221Z,55.00
2019-03-21T16:03:10.630Z,55.60
2019-03-21T16:05:40.299Z,55.50
2019-03-21T16:08:09.912Z,55.60
2019-03-21T16:10:39.038Z,54.80
2019-03-21T16:13:08.347Z,55.40
2019-03-21T16:15:37.702Z,55.50
2019-03-21T16:18:06.884Z,56.20
2019-03-21T16:20:36.273Z,56.10
2019-03-21T16:23:05.662Z,56.40
2019-03-21T16:25:34.524Z,56.90
2019-03-21T16:28:03.615Z,57.20
2019-03-21T16:30:32.488Z,57.60
2019-03-21T16:33:01.682Z,58.40
2019-03-21T16:35:30.604Z,58.00
2019-03-21T16:37:59.872Z,59.10
2019-03-21T16:40:30.479Z,59.00
2019-03-21T16:42:59.584Z,58.70
2019-03-21T16:45:28.973Z,58.10
2019-03-21T16:47:58.088Z,59.00
2019-03-21T16:50:27.164Z,59.80
2019-03-21T16:52:56.595Z,59.50
2019-03-21T16:55:25.564Z,60.50
2019-03-21T16:57:56.449Z,60.00
2019-03-21T17:00:25.353Z,61.20
2019-03-21T17:02:54.713Z,60.80
2019-03-21T17:05:24.757Z,61.80
2019-03-21T17:07:53.654Z,62.50
2019-03-21T17:10:25.833Z,64.00
2019-03-21T17:12:55.059Z,65.10
2019-03-21T17:15:24.239Z,66.30
2019-03-21T17:17:53.103Z,67.40
2019-03-21T17:20:22.063Z,67.10
2019-03-21T17:22:52.286Z,69.20
2019-03-21T17:25:21.647Z,71.30
2019-03-21T17:27:54.517Z,74.50
2019-03-21T17:30:22.403Z,81.50
2019-03-21T17:32:51.551Z,84.10
2019-03-21T17:35:20.399Z,90.20
2019-03-21T17:37:49.328Z,91.70
2019-03-21T17:40:18.427Z,93.80
2019-03-21T17:42:47.403Z,96.00
2019-03-21T17:45:17.289Z,99.20
2019-03-21T17:47:46.931Z,99.90
2019-03-21T17:50:17.259Z,99.90
2019-03-21T17:52:46.350Z,99.90
2019-03-21T17:55:15.792Z,99.90
2019-03-21T17:57:45.345Z,99.90
2019-03-21T18:00:17.413Z,99.90
2019-03-21T18:02:46.887Z,99.90
2019-03-21T18:05:15.753Z,99.90
2019-03-21T18:07:45.102Z,99.90
2019-03-21T18:10:28.765Z,99.90
2019-03-21T18:12:57.893Z,99.90
2019-03-21T18:15:27.018Z,99.90
2019-03-21T18:17:55.938Z,99.90
2019-03-21T18:20:25.229Z,99.90
2019-03-21T18:22:54.632Z,99.90
2019-03-21T18:25:23.737Z,99.90
2019-03-21T18:27:52.861Z,99.90
2019-03-21T18:30:22.923Z,99.90
2019-03-21T18:32:53.512Z,99.90
2019-03-21T18:35:23.342Z,99.90
2019-03-21T18:37:52.939Z,99.90
2019-03-21T18:40:22.385Z,99.90
2019-03-21T18:42:52.850Z,99.90
2019-03-21T18:45:22.078Z,99.90
2019-03-21T18:47:51.131Z,99.90
2019-03-21T18:50:20.661Z,99.90
2019-03-21T18:52:49.556Z,99.90
2019-03-21T18:55:18.496Z,99.90
2019-03-21T18:57:47.711Z,99.90
2019-03-21T19:00:16.780Z,99.90
2019-03-21T19:02:46.209Z,99.90
2019-03-21T19:05:15.540Z,99.90
2019-03-21T19:07:44.511Z,99.90
2019-03-21T19:10:14.006Z,99.90
2019-03-21T19:12:42.933Z,99.90
2019-03-21T19:15:12.333Z,99.90
2019-03-21T19:17:41.811Z,99.90
2019-03-21T19:20:12.672Z,99.90
2019-03-21T19:22:42.157Z,99.90
2019-03-21T19:25:18.331Z,99.90
2019-03-21T19:27:43.759Z,99.90
2019-03-21T19:30:13.315Z,99.90
2019-03-21T19:32:42.900Z,99.90
2019-03-21T19:35:13.705Z,99.90
2019-03-21T19:37:42.774Z,99.90
2019-03-21T19:40:14.412Z,99.90
2019-03-21T19:42:44.159Z,99.90
2019-03-21T19:45:13.317Z,99.90
2019-03-21T19:47:42.389Z,99.90
2019-03-21T19:50:13.523Z,99.90
2019-03-21T19:52:42.322Z,99.90
2019-03-21T19:55:14.231Z,99.90
2019-03-21T19:57:44.228Z,99.90
2019-03-21T20:00:16.629Z,99.90
2019-03-21T20:02:45.888Z,99.90
2019-03-21T20:05:15.246Z,99.90
2019-03-21T20:07:45.112Z,99.90
2019-03-21T20:10:16.255Z,99.90
2019-03-21T20:12:45.966Z,99.90
2019-03-21T20:15:17.734Z,99.90
2019-03-21T20:17:46.852Z,99.90
2019-03-21T20:20:15.746Z,99.90
2019-03-21T20:22:45.270Z,99.90
2019-03-21T20:25:15.004Z,99.90
2019-03-21T20:27:44.687Z,99.90
2019-03-21T20:30:16.975Z,99.90
2019-03-21T20:32:47.337Z,99.90
2019-03-21T20:35:16.564Z,99.90
2019-03-21T20:37:45.616Z,99.90
2019-03-21T20:40:15.664Z,99.90
2019-03-21T20:42:44.544Z,99.90
2019-03-21T20:45:14.174Z,99.90
2019-03-21T20:47:44.660Z,99.90
2019-03-21T20:50:14.177Z,99.90
2019-03-21T20:52:43.916Z,99.90
2019-03-21T20:55:13.452Z,99.90
2019-03-21T20:57:42.796Z,99.90
2019-03-21T21:00:16.323Z,99.90
2019-03-21T21:02:45.225Z,99.90
2019-03-21T21:05:15.020Z,99.90
2019-03-21T21:07:44.437Z,99.90
2019-03-21T21:10:13.954Z,99.90
2019-03-21T21:12:44.247Z,99.90
2019-03-21T21:15:13.887Z,99.90
2019-03-21T21:17:43.429Z,99.90
2019-03-21T21:20:14.272Z,99.90
2019-03-21T21:22:43.668Z,99.90
2019-03-21T21:25:13.559Z,99.90
2019-03-21T21:27:49.332Z,99.90
2019-03-21T21:30:15.928Z,99.90
2019-03-21T21:32:45.063Z,99.90
2019-03-21T21:35:13.830Z,99.90
2019-03-21T21:37:44.081Z,99.90
2019-03-21T21:40:14.700Z,99.90
2019-03-21T21:42:44.722Z,99.90
2019-03-21T21:45:14.301Z,99.90
2019-03-21T21:47:43.756Z,99.90
2019-03-21T21:50:13.025Z,99.90
2019-03-21T21:52:42.576Z,99.90
2019-03-21T21:55:11.953Z,99.90
2019-03-21T21:57:40.977Z,99.90
2019-03-21T22:00:13.607Z,99.90
2019-03-21T22:02:43.056Z,99.90
2019-03-21T22:05:12.218Z,99.90
2019-03-21T22:07:41.265Z,99.90
2019-03-21T22:10:11.319Z,99.90
2019-03-21T22:12:41.440Z,99.90
2019-03-21T22:15:11.969Z,99.90
2019-03-21T22:17:41.150Z,99.90
2019-03-21T22:20:10.973Z,99.90
2019-03-21T22:22:39.722Z,99.90
2019-03-21T22:25:09.358Z,99.90
2019-03-21T22:27:38.612Z,99.90
2019-03-21T22:30:10.571Z,99.90
2019-03-21T22:32:39.832Z,99.90
2019-03-21T22:35:08.923Z,99.90
2019-03-21T22:37:38.211Z,99.90
2019-03-21T22:40:08.184Z,99.90
2019-03-21T22:42:37.532Z,99.90
2019-03-21T22:45:09.285Z,99.90
2019-03-21T22:47:38.165Z,99.90
2019-03-21T22:50:10.420Z,99.90
2019-03-21T22:52:39.536Z,99.90
2019-03-21T22:55:08.814Z,99.90
2019-03-21T22:57:38.033Z,99.90
2019-03-21T23:00:09.740Z,99.90
2019-03-21T23:02:38.877Z,99.90
2019-03-21T23:05:08.050Z,99.90
2019-03-21T23:07:38.609Z,99.90
2019-03-21T23:10:07.722Z,99.90
2019-03-21T23:12:37.049Z,99.90
2019-03-21T23:15:07.168Z,99.90
2019-03-21T23:17:38.513Z,99.90
2019-03-21T23:20:08.572Z,99.90
2019-03-21T23:22:37.582Z,99.90
2019-03-21T23:25:07.037Z,99.90
2019-03-21T23:27:36.359Z,99.90
2019-03-21T23:30:08.431Z,99.90
2019-03-21T23:32:37.831Z,99.90
2019-03-21T23:35:07.907Z,99.90
2019-03-21T23:37:39.398Z,99.90
2019-03-21T23:40:09.099Z,99.90
2019-03-21T23:42:38.284Z,99.90
2019-03-21T23:45:07.589Z,99.90
2019-03-21T23:47:36.799Z,99.90
2019-03-21T23:50:07.097Z,99.90
2019-03-21T23:52:35.973Z,99.90
2019-03-21T23:55:05.857Z,99.90
2019-03-21T23:57:34.761Z,99.90
